createdAt,value
2022-07-31T00:03:26.048Z,9.75
2022-07-31T00:08:29.337Z,10.67
2022-07-31T00:13:56.361Z,12.23
2022-07-31T00:18:56.723Z,11.68
2022-07-31T00:23:59.770Z,8.43
2022-07-31T00:29:02.791Z,8.27
2022-07-31T00:34:07.412Z,13.38
2022-07-31T00:39:10.485Z,9.50
2022-07-31T00:44:14.354Z,9.43
2022-07-31T00:49:19.115Z,8.90
2022-07-31T00:54:22.562Z,8.87
2022-07-31T00:59:27.418Z,8.25
2022-07-31T01:04:32.225Z,6.17
2022-07-31T01:09:35.344Z,9.52
2022-07-31T01:14:43.255Z,8.10
2022-07-31T01:19:49.198Z,7.05
2022-07-31T01:25:05.422Z,10.90
2022-07-31T01:30:15.286Z,6.30
2022-07-31T01:35:22.500Z,12.35
2022-07-31T01:40:31.459Z,11.15
2022-07-31T01:45:38.609Z,9.98
2022-07-31T01:50:46.240Z,9.77
2022-07-31T01:56:02.086Z,10.30
2022-07-31T02:01:12.505Z,11.20
2022-07-31T02:06:19.004Z,13.20
2022-07-31T02:11:23.386Z,9.20
2022-07-31T02:16:29.619Z,10.65
2022-07-31T02:21:40.659Z,11.70
2022-07-31T02:26:44.235Z,10.60
2022-07-31T02:32:03.336Z,13.38
2022-07-31T02:37:08.884Z,10.15
2022-07-31T02:42:12.698Z,10.45
2022-07-31T02:47:18.243Z,11.98
2022-07-31T02:52:22.047Z,15.10
2022-07-31T02:57:25.749Z,9.38
2022-07-31T03:02:37.821Z,7.57
2022-07-31T03:07:41.716Z,9.35
2022-07-31T03:12:47.520Z,7.97
2022-07-31T03:17:53.645Z,10.27
2022-07-31T03:23:07.353Z,8.75
2022-07-31T03:28:19.318Z,8.15
2022-07-31T03:33:24.938Z,8.63
2022-07-31T03:38:38.224Z,7.95
2022-07-31T03:43:48.316Z,9.57
2022-07-31T03:48:58.274Z,8.85
2022-07-31T03:54:03.914Z,8.55
2022-07-31T03:59:20.110Z,8.00
2022-07-31T04:04:26.191Z,11.95
2022-07-31T04:09:33.391Z,10.98
2022-07-31T04:14:36.804Z,8.15
2022-07-31T04:19:41.934Z,9.20
2022-07-31T04:24:45.798Z,9.23
2022-07-31T04:30:08.801Z,9.75
2022-07-31T04:35:13.746Z,9.57
2022-07-31T04:40:17.400Z,7.88
2022-07-31T04:45:20.737Z,9.18
2022-07-31T04:50:25.160Z,9.93
2022-07-31T04:55:32.388Z,9.30
2022-07-31T05:00:35.555Z,9.20
2022-07-31T05:05:42.803Z,9.40
2022-07-31T05:11:04.486Z,8.95
2022-07-31T05:16:11.488Z,9.73
2022-07-31T05:21:17.313Z,8.90
2022-07-31T05:26:35.094Z,5.85
2022-07-31T05:31:38.331Z,8.02
2022-07-31T05:37:03.061Z,7.82
2022-07-31T05:42:08.271Z,7.82
2022-07-31T05:47:40.134Z,9.10
2022-07-31T05:52:46.369Z,7.15
2022-07-31T05:58:17.103Z,7.25
2022-07-31T06:03:23.362Z,9.73
2022-07-31T06:08:38.413Z,8.30
2022-07-31T06:13:43.394Z,5.78
2022-07-31T06:19:09.354Z,7.95
2022-07-31T06:24:13.910Z,8.20
2022-07-31T06:29:20.051Z,4.82
2022-07-31T06:34:43.301Z,5.68
2022-07-31T06:39:55.972Z,5.47
2022-07-31T06:45:30.034Z,6.90
2022-07-31T06:51:31.886Z,6.55
2022-07-31T06:56:30.037Z,7.88
2022-07-31T07:01:33.804Z,8.07
2022-07-31T07:06:37.274Z,6.57
2022-07-31T07:11:41.953Z,10.25
2022-07-31T07:16:48.290Z,5.50
2022-07-31T07:21:51.435Z,6.95
2022-07-31T07:26:56.090Z,7.53
2022-07-31T07:31:59.996Z,10.73
2022-07-31T07:37:03.339Z,7.27
2022-07-31T07:42:11.416Z,7.07
2022-07-31T07:47:14.557Z,9.05
2022-07-31T07:52:18.484Z,8.45
2022-07-31T07:57:44.959Z,8.32
2022-07-31T08:03:48.754Z,9.13
2022-07-31T08:08:43.375Z,6.70
2022-07-31T08:13:50.948Z,7.13
2022-07-31T08:19:13.117Z,6.82
2022-07-31T08:24:16.964Z,6.37
2022-07-31T08:29:28.879Z,6.13
2022-07-31T08:34:46.531Z,8.43
2022-07-31T08:39:51.228Z,5.77
2022-07-31T08:44:56.407Z,6.63
2022-07-31T08:50:05.597Z,7.03
2022-07-31T08:55:09.527Z,10.48
2022-07-31T09:00:19.659Z,6.18
2022-07-31T09:05:25.218Z,4.72
2022-07-31T09:10:30.217Z,6.35
2022-07-31T09:15:35.265Z,6.68
2022-07-31T09:20:41.207Z,7.55
2022-07-31T09:25:52.573Z,5.18
2022-07-31T09:30:57.373Z,5.80
2022-07-31T09:36:29.931Z,5.55
2022-07-31T09:42:00.140Z,6.22
2022-07-31T09:47:26.825Z,7.93
2022-07-31T09:52:31.824Z,4.90
2022-07-31T09:57:35.877Z,5.70
2022-07-31T10:02:43.662Z,6.70
2022-07-31T10:07:48.822Z,6.68
2022-07-31T10:13:01.821Z,5.75
2022-07-31T10:18:08.798Z,4.63
2022-07-31T10:23:28.997Z,8.73
2022-07-31T10:28:33.236Z,5.70
2022-07-31T10:33:45.355Z,6.93
2022-07-31T10:39:15.769Z,6.47
2022-07-31T10:44:38.185Z,9.55
2022-07-31T10:49:57.016Z,6.55
2022-07-31T10:55:27.146Z,5.47
2022-07-31T11:00:52.099Z,7.13
2022-07-31T11:06:09.349Z,6.07
2022-07-31T11:11:33.211Z,4.45
2022-07-31T11:16:55.822Z,5.78
2022-07-31T11:22:40.845Z,9.00
2022-07-31T11:27:44.105Z,7.85
2022-07-31T11:32:51.451Z,5.13
2022-07-31T11:37:58.347Z,7.38
2022-07-31T11:48:38.266Z,4.95
2022-07-31T11:53:45.491Z,4.67
2022-07-31T11:58:52.772Z,6.05
2022-07-31T12:03:57.018Z,7.38
2022-07-31T12:09:04.642Z,6.22
2022-07-31T12:14:08.127Z,7.47
2022-07-31T12:19:11.198Z,9.67
2022-07-31T12:24:16.609Z,4.97
2022-07-31T12:29:20.674Z,8.90
2022-07-31T12:39:53.691Z,5.72
2022-07-31T12:45:19.384Z,4.60
2022-07-31T12:50:24.828Z,4.28
2022-07-31T12:55:32.238Z,4.63
2022-07-31T13:00:39.627Z,5.00
2022-07-31T13:05:43.451Z,4.10
2022-07-31T13:15:51.774Z,6.88
2022-07-31T13:26:00.044Z,5.05
2022-07-31T13:31:03.207Z,3.50
2022-07-31T13:36:06.508Z,4.82
2022-07-31T13:41:28.322Z,5.10
2022-07-31T13:46:31.787Z,4.10
2022-07-31T14:02:03.446Z,6.25
2022-07-31T14:07:09.089Z,4.28
2022-07-31T14:12:13.766Z,6.13
2022-07-31T14:17:18.463Z,2.10
2022-07-31T14:22:21.558Z,4.57
2022-07-31T14:27:28.238Z,5.28
2022-07-31T14:32:31.560Z,3.88
2022-07-31T14:37:34.716Z,4.07
2022-07-31T14:42:39.428Z,5.20
2022-07-31T14:47:42.487Z,6.95
2022-07-31T14:52:45.502Z,1.85
2022-07-31T15:02:53.556Z,3.38
2022-07-31T15:13:03.291Z,3.85
2022-07-31T15:18:06.670Z,6.05
2022-07-31T15:23:09.756Z,3.65
2022-07-31T15:28:14.874Z,5.78
2022-07-31T15:33:17.994Z,4.40
2022-07-31T15:38:21.216Z,3.13
2022-07-31T15:43:25.577Z,5.30
2022-07-31T15:48:29.015Z,3.53
2022-07-31T15:58:43.861Z,2.95
2022-07-31T16:03:53.057Z,3.95
2022-07-31T16:08:56.699Z,2.65
2022-07-31T16:14:01.092Z,3.73
2022-07-31T16:19:04.284Z,2.92
2022-07-31T16:24:07.581Z,2.83
2022-07-31T16:29:17.437Z,4.85
2022-07-31T16:34:21.184Z,3.55
2022-07-31T16:39:24.268Z,2.33
2022-07-31T16:44:29.410Z,2.63
2022-07-31T16:49:36.272Z,2.95
2022-07-31T16:54:40.711Z,4.20
2022-07-31T16:59:57.281Z,4.73
2022-07-31T17:05:01.111Z,2.75
2022-07-31T17:10:05.013Z,5.30
2022-07-31T17:15:10.969Z,3.55
2022-07-31T17:20:15.019Z,5.30
2022-07-31T17:25:18.781Z,4.05
2022-07-31T17:30:23.362Z,8.53
2022-07-31T17:35:26.501Z,3.58
2022-07-31T17:40:43.054Z,3.28
2022-07-31T17:46:05.766Z,3.72
2022-07-31T17:51:12.056Z,3.80
2022-07-31T17:56:15.225Z,4.00
2022-07-31T18:01:19.692Z,4.65
2022-07-31T18:11:26.729Z,3.30
2022-07-31T18:16:31.100Z,3.35
2022-07-31T18:21:34.517Z,5.07
2022-07-31T18:26:37.830Z,4.93
2022-07-31T18:31:42.672Z,2.97
2022-07-31T18:36:45.865Z,2.83
2022-07-31T18:41:49.207Z,3.85
2022-07-31T18:46:53.780Z,4.47
2022-07-31T18:51:57.033Z,4.38
2022-07-31T18:57:00.528Z,9.55
2022-07-31T19:02:05.905Z,5.03
2022-07-31T19:07:09.265Z,7.80
2022-07-31T19:12:13.879Z,4.18
2022-07-31T19:17:21.460Z,3.63
2022-07-31T19:22:24.948Z,3.97
2022-07-31T19:27:48.214Z,3.25
2022-07-31T19:32:52.594Z,4.15
2022-07-31T19:37:56.753Z,3.47
2022-07-31T19:42:59.903Z,7.90
2022-07-31T19:48:05.070Z,4.15
2022-07-31T19:53:08.527Z,5.13
2022-07-31T19:58:11.585Z,5.20
2022-07-31T20:03:16.109Z,7.38
2022-07-31T20:08:19.328Z,4.78
2022-07-31T20:13:22.385Z,5.05
2022-07-31T20:18:28.597Z,4.97
2022-07-31T20:23:34.351Z,6.50
2022-07-31T20:28:40.500Z,4.88
2022-07-31T20:33:56.547Z,3.55
2022-07-31T20:39:00.561Z,7.32
2022-07-31T20:44:03.997Z,7.60
2022-07-31T20:49:08.498Z,5.30
2022-07-31T20:54:34.309Z,5.03
2022-07-31T20:59:38.230Z,4.18
2022-07-31T21:04:43.256Z,5.95
2022-07-31T21:14:49.227Z,4.72
2022-07-31T21:19:54.151Z,7.00
2022-07-31T21:30:00.819Z,5.20
2022-07-31T21:35:07.116Z,5.88
2022-07-31T21:40:11.721Z,4.82
2022-07-31T21:45:15.881Z,5.50
2022-07-31T21:50:29.038Z,7.65
2022-07-31T21:55:32.537Z,7.70
2022-07-31T22:00:36.153Z,7.05
2022-07-31T22:06:00.686Z,5.63
2022-07-31T22:11:03.828Z,7.28
2022-07-31T22:16:07.377Z,7.40
2022-07-31T22:21:12.542Z,6.97
2022-07-31T22:26:16.233Z,5.57
2022-07-31T22:31:20.107Z,6.63
2022-07-31T22:36:25.543Z,4.72
2022-07-31T22:41:28.691Z,6.15
2022-07-31T22:46:32.720Z,6.47
2022-07-31T22:51:38.680Z,6.73
2022-07-31T22:56:42.645Z,8.45
2022-07-31T23:01:45.701Z,8.05
2022-07-31T23:06:50.337Z,6.50
2022-07-31T23:11:53.448Z,7.20
2022-07-31T23:16:56.524Z,8.35
2022-07-31T23:22:00.957Z,9.13
2022-07-31T23:27:08.288Z,5.80
2022-07-31T23:32:11.316Z,7.20
2022-07-31T23:37:15.733Z,7.28
2022-07-31T23:42:37.441Z,8.93
2022-07-31T23:47:45.472Z,9.02
2022-07-31T23:52:51.974Z,8.57
2022-07-31T23:57:55.151Z,7.78
